sensor_id;sensor_type;location;lat;lon;timestamp;P1;durP1;ratioP1;P2;durP2;ratioP2
74457;SDS011;62896;51.032;3.712;2022-12-15T00:00:10;70;;;36.1;;
74457;SDS011;62896;51.032;3.712;2022-12-15T00:03:30;70;;;36.1;;
74457;SDS011;62896;51.032;3.712;2022-12-15T00:06:50;70;;;36.1;;
74457;SDS011;62896;51.032;3.712;2022-12-15T00:10:10;70;;;36.1;;
74457;SDS011;62896;51.032;3.712;2022-12-15T00:13:30;73;;;37;;
74457;SDS011;62896;51.032;3.712;2022-12-15T00:16:50;73;;;37;;
74457;SDS011;62896;51.032;3.712;2022-12-15T00:20:10;73;;;37;;
74457;SDS011;62896;51.032;3.712;2022-12-15T00:23:30;73;;;37;;
74457;SDS011;62896;51.032;3.712;2022-12-15T00:26:50;73;;;37;;
74457;SDS011;62896;51.032;3.712;2022-12-15T00:30:10;73;;;37;;
74457;SDS011;62896;51.032;3.712;2022-12-15T00:33:30;73;;;37;;
74457;SDS011;62896;51.032;3.712;2022-12-15T00:36:50;73.6;;;38.2;;
74457;SDS011;62896;51.032;3.712;2022-12-15T00:40:11;73.6;;;38.2;;
74457;SDS011;62896;51.032;3.712;2022-12-15T00:43:31;73.6;;;38.2;;
74457;SDS011;62896;51.032;3.712;2022-12-15T00:46:50;73.6;;;38.2;;
74457;SDS011;62896;51.032;3.712;2022-12-15T00:50:10;73.6;;;38.2;;
74457;SDS011;62896;51.032;3.712;2022-12-15T00:53:30;73.6;;;38.2;;
74457;SDS011;62896;51.032;3.712;2022-12-15T00:56:50;73.6;;;38.2;;
74457;SDS011;62896;51.032;3.712;2022-12-15T01:00:11;73.6;;;38.2;;
74457;SDS011;62896;51.032;3.712;2022-12-15T01:03:30;68.7;;;32.7;;
74457;SDS011;62896;51.032;3.712;2022-12-15T01:06:50;68.7;;;32.7;;
74457;SDS011;62896;51.032;3.712;2022-12-15T01:10:10;68.7;;;32.7;;
74457;SDS011;62896;51.032;3.712;2022-12-15T01:13:30;68.7;;;32.7;;
74457;SDS011;62896;51.032;3.712;2022-12-15T01:16:50;68.7;;;32.7;;
74457;SDS011;62896;51.032;3.712;2022-12-15T01:20:10;68.7;;;32.7;;
74457;SDS011;62896;51.032;3.712;2022-12-15T01:23:30;68.7;;;32.7;;
74457;SDS011;62896;51.032;3.712;2022-12-15T01:26:50;69.4;;;34.5;;
74457;SDS011;62896;51.032;3.712;2022-12-15T01:30:11;69.4;;;34.5;;
74457;SDS011;62896;51.032;3.712;2022-12-15T01:33:30;69.4;;;34.5;;
74457;SDS011;62896;51.032;3.712;2022-12-15T01:36:50;69.4;;;34.5;;
74457;SDS011;62896;51.032;3.712;2022-12-15T01:40:10;69.4;;;34.5;;
74457;SDS011;62896;51.032;3.712;2022-12-15T01:43:31;69.4;;;34.5;;
74457;SDS011;62896;51.032;3.712;2022-12-15T01:46:51;69.4;;;34.5;;
74457;SDS011;62896;51.032;3.712;2022-12-15T01:50:11;69.4;;;34.5;;
74457;SDS011;62896;51.032;3.712;2022-12-15T01:53:31;60.4;;;32;;
74457;SDS011;62896;51.032;3.712;2022-12-15T01:56:51;60.4;;;32;;
74457;SDS011;62896;51.032;3.712;2022-12-15T02:00:10;60.4;;;32;;
74457;SDS011;62896;51.032;3.712;2022-12-15T02:03:30;60.4;;;32;;
74457;SDS011;62896;51.032;3.712;2022-12-15T02:06:50;60.4;;;32;;
74457;SDS011;62896;51.032;3.712;2022-12-15T02:10:10;60.4;;;32;;
74457;SDS011;62896;51.032;3.712;2022-12-15T02:13:32;60.4;;;32;;
74457;SDS011;62896;51.032;3.712;2022-12-15T02:16:54;59.1;;;29.6;;
74457;SDS011;62896;51.032;3.712;2022-12-15T02:20:25;59.1;;;29.6;;
74457;SDS011;62896;51.032;3.712;2022-12-15T02:23:37;59.1;;;29.6;;
74457;SDS011;62896;51.032;3.712;2022-12-15T02:27:10;59.1;;;29.6;;
74457;SDS011;62896;51.032;3.712;2022-12-15T02:30:14;59.1;;;29.6;;
74457;SDS011;62896;51.032;3.712;2022-12-15T02:33:30;59.1;;;29.6;;
74457;SDS011;62896;51.032;3.712;2022-12-15T02:36:53;59.1;;;29.6;;
74457;SDS011;62896;51.032;3.712;2022-12-15T02:40:10;59.1;;;29.6;;
74457;SDS011;62896;51.032;3.712;2022-12-15T02:43:32;55.9;;;29.7;;
74457;SDS011;62896;51.032;3.712;2022-12-15T02:46:54;55.9;;;29.7;;
74457;SDS011;62896;51.032;3.712;2022-12-15T02:50:16;55.9;;;29.7;;
74457;SDS011;62896;51.032;3.712;2022-12-15T02:53:36;55.9;;;29.7;;
74457;SDS011;62896;51.032;3.712;2022-12-15T02:56:52;55.9;;;29.7;;
74457;SDS011;62896;51.032;3.712;2022-12-15T03:00:11;55.9;;;29.7;;
74457;SDS011;62896;51.032;3.712;2022-12-15T03:03:30;55.9;;;29.7;;
74457;SDS011;62896;51.032;3.712;2022-12-15T03:06:53;55.2;;;29.2;;
74457;SDS011;62896;51.032;3.712;2022-12-15T03:10:11;55.2;;;29.2;;
74457;SDS011;62896;51.032;3.712;2022-12-15T03:13:30;55.2;;;29.2;;
74457;SDS011;62896;51.032;3.712;2022-12-15T03:16:50;55.2;;;29.2;;
74457;SDS011;62896;51.032;3.712;2022-12-15T03:20:10;55.2;;;29.2;;
74457;SDS011;62896;51.032;3.712;2022-12-15T03:23:30;55.2;;;29.2;;
74457;SDS011;62896;51.032;3.712;2022-12-15T03:26:50;55.2;;;29.2;;
74457;SDS011;62896;51.032;3.712;2022-12-15T03:30:10;55.2;;;29.2;;
74457;SDS011;62896;51.032;3.712;2022-12-15T03:33:31;52.3;;;28.1;;
74457;SDS011;62896;51.032;3.712;2022-12-15T03:36:50;52.3;;;28.1;;
74457;SDS011;62896;51.032;3.712;2022-12-15T03:40:10;52.3;;;28.1;;
74457;SDS011;62896;51.032;3.712;2022-12-15T03:43:30;52.3;;;28.1;;
74457;SDS011;62896;51.032;3.712;2022-12-15T03:46:50;52.3;;;28.1;;
74457;SDS011;62896;51.032;3.712;2022-12-15T03:50:11;52.3;;;28.1;;
74457;SDS011;62896;51.032;3.712;2022-12-15T03:53:30;52.3;;;28.1;;
74457;SDS011;62896;51.032;3.712;2022-12-15T03:56:50;50.9;;;27.2;;
74457;SDS011;62896;51.032;3.712;2022-12-15T04:00:11;50.9;;;27.2;;
74457;SDS011;62896;51.032;3.712;2022-12-15T04:03:30;50.9;;;27.2;;
74457;SDS011;62896;51.032;3.712;2022-12-15T04:06:50;50.9;;;27.2;;
74457;SDS011;62896;51.032;3.712;2022-12-15T04:10:10;50.9;;;27.2;;
74457;SDS011;62896;51.032;3.712;2022-12-15T04:13:30;50.9;;;27.2;;
74457;SDS011;62896;51.032;3.712;2022-12-15T04:16:50;50.9;;;27.2;;
74457;SDS011;62896;51.032;3.712;2022-12-15T04:20:10;50.9;;;27.2;;
74457;SDS011;62896;51.032;3.712;2022-12-15T04:23:30;57.6;;;28.3;;
74457;SDS011;62896;51.032;3.712;2022-12-15T04:26:50;57.6;;;28.3;;
74457;SDS011;62896;51.032;3.712;2022-12-15T04:30:11;57.6;;;28.3;;
74457;SDS011;62896;51.032;3.712;2022-12-15T04:33:30;57.6;;;28.3;;
74457;SDS011;62896;51.032;3.712;2022-12-15T04:36:51;57.6;;;28.3;;
74457;SDS011;62896;51.032;3.712;2022-12-15T04:40:10;57.6;;;28.3;;
74457;SDS011;62896;51.032;3.712;2022-12-15T04:43:30;57.6;;;28.3;;
74457;SDS011;62896;51.032;3.712;2022-12-15T04:46:50;54.4;;;26.8;;
74457;SDS011;62896;51.032;3.712;2022-12-15T04:50:10;54.4;;;26.8;;
74457;SDS011;62896;51.032;3.712;2022-12-15T04:53:30;54.4;;;26.8;;
74457;SDS011;62896;51.032;3.712;2022-12-15T04:56:50;54.4;;;26.8;;
74457;SDS011;62896;51.032;3.712;2022-12-15T05:00:11;54.4;;;26.8;;
74457;SDS011;62896;51.032;3.712;2022-12-15T05:03:30;54.4;;;26.8;;
74457;SDS011;62896;51.032;3.712;2022-12-15T05:06:50;54.4;;;26.8;;
74457;SDS011;62896;51.032;3.712;2022-12-15T05:10:10;54.4;;;26.8;;
74457;SDS011;62896;51.032;3.712;2022-12-15T05:13:30;45.7;;;24.3;;
74457;SDS011;62896;51.032;3.712;2022-12-15T05:16:50;45.7;;;24.3;;
74457;SDS011;62896;51.032;3.712;2022-12-15T05:20:10;45.7;;;24.3;;
74457;SDS011;62896;51.032;3.712;2022-12-15T05:23:30;45.7;;;24.3;;
74457;SDS011;62896;51.032;3.712;2022-12-15T05:26:50;45.7;;;24.3;;
74457;SDS011;62896;51.032;3.712;2022-12-15T05:30:10;45.7;;;24.3;;
74457;SDS011;62896;51.032;3.712;2022-12-15T05:33:30;45.7;;;24.3;;
74457;SDS011;62896;51.032;3.712;2022-12-15T05:36:50;45.1;;;23.2;;
74457;SDS011;62896;51.032;3.712;2022-12-15T05:40:11;45.1;;;23.2;;
74457;SDS011;62896;51.032;3.712;2022-12-15T05:43:30;45.1;;;23.2;;
74457;SDS011;62896;51.032;3.712;2022-12-15T05:46:50;45.1;;;23.2;;
74457;SDS011;62896;51.032;3.712;2022-12-15T05:50:10;45.1;;;23.2;;
74457;SDS011;62896;51.032;3.712;2022-12-15T05:53:30;45.1;;;23.2;;
74457;SDS011;62896;51.032;3.712;2022-12-15T05:56:50;45.1;;;23.2;;
74457;SDS011;62896;51.032;3.712;2022-12-15T06:00:11;45.1;;;23.2;;
74457;SDS011;62896;51.032;3.712;2022-12-15T06:03:30;46.2;;;24.4;;
74457;SDS011;62896;51.032;3.712;2022-12-15T06:06:50;46.2;;;24.4;;
74457;SDS011;62896;51.032;3.712;2022-12-15T06:10:10;46.2;;;24.4;;
74457;SDS011;62896;51.032;3.712;2022-12-15T06:13:31;46.2;;;24.4;;
74457;SDS011;62896;51.032;3.712;2022-12-15T06:16:50;46.2;;;24.4;;
74457;SDS011;62896;51.032;3.712;2022-12-15T06:20:10;46.2;;;24.4;;
74457;SDS011;62896;51.032;3.712;2022-12-15T06:23:30;46.2;;;24.4;;
74457;SDS011;62896;51.032;3.712;2022-12-15T06:26:50;46.9;;;24.3;;
74457;SDS011;62896;51.032;3.712;2022-12-15T06:30:11;46.9;;;24.3;;
74457;SDS011;62896;51.032;3.712;2022-12-15T06:33:30;46.9;;;24.3;;
74457;SDS011;62896;51.032;3.712;2022-12-15T06:36:50;46.9;;;24.3;;
74457;SDS011;62896;51.032;3.712;2022-12-15T06:40:10;46.9;;;24.3;;
74457;SDS011;62896;51.032;3.712;2022-12-15T06:43:31;46.9;;;24.3;;
74457;SDS011;62896;51.032;3.712;2022-12-15T06:46:50;46.9;;;24.3;;
74457;SDS011;62896;51.032;3.712;2022-12-15T06:50:10;46.9;;;24.3;;
74457;SDS011;62896;51.032;3.712;2022-12-15T06:53:30;52.1;;;26.8;;
74457;SDS011;62896;51.032;3.712;2022-12-15T06:56:50;52.1;;;26.8;;
74457;SDS011;62896;51.032;3.712;2022-12-15T07:00:11;52.1;;;26.8;;
74457;SDS011;62896;51.032;3.712;2022-12-15T07:03:30;52.1;;;26.8;;
74457;SDS011;62896;51.032;3.712;2022-12-15T07:06:50;52.1;;;26.8;;
74457;SDS011;62896;51.032;3.712;2022-12-15T07:10:10;52.1;;;26.8;;
74457;SDS011;62896;51.032;3.712;2022-12-15T07:13:31;52.1;;;26.8;;
74457;SDS011;62896;51.032;3.712;2022-12-15T07:16:50;52.2;;;25.5;;
74457;SDS011;62896;51.032;3.712;2022-12-15T07:20:10;52.2;;;25.5;;
74457;SDS011;62896;51.032;3.712;2022-12-15T07:23:31;52.2;;;25.5;;
74457;SDS011;62896;51.032;3.712;2022-12-15T07:26:50;52.2;;;25.5;;
74457;SDS011;62896;51.032;3.712;2022-12-15T07:30:11;52.2;;;25.5;;
74457;SDS011;62896;51.032;3.712;2022-12-15T07:33:31;52.2;;;25.5;;
74457;SDS011;62896;51.032;3.712;2022-12-15T07:36:50;52.2;;;25.5;;
74457;SDS011;62896;51.032;3.712;2022-12-15T07:40:10;52.2;;;25.5;;
74457;SDS011;62896;51.032;3.712;2022-12-15T07:43:30;56.7;;;29.5;;
74457;SDS011;62896;51.032;3.712;2022-12-15T07:46:50;56.7;;;29.5;;
74457;SDS011;62896;51.032;3.712;2022-12-15T07:50:10;56.7;;;29.5;;
74457;SDS011;62896;51.032;3.712;2022-12-15T07:53:30;56.7;;;29.5;;
74457;SDS011;62896;51.032;3.712;2022-12-15T07:56:50;56.7;;;29.5;;
74457;SDS011;62896;51.032;3.712;2022-12-15T08:00:11;56.7;;;29.5;;
74457;SDS011;62896;51.032;3.712;2022-12-15T08:03:30;56.7;;;29.5;;
74457;SDS011;62896;51.032;3.712;2022-12-15T08:06:51;52;;;27.2;;
74457;SDS011;62896;51.032;3.712;2022-12-15T08:10:10;52;;;27.2;;
74457;SDS011;62896;51.032;3.712;2022-12-15T08:13:31;52;;;27.2;;
74457;SDS011;62896;51.032;3.712;2022-12-15T08:16:50;52;;;27.2;;
74457;SDS011;62896;51.032;3.712;2022-12-15T08:20:10;52;;;27.2;;
74457;SDS011;62896;51.032;3.712;2022-12-15T08:23:31;52;;;27.2;;
74457;SDS011;62896;51.032;3.712;2022-12-15T08:26:50;52;;;27.2;;
74457;SDS011;62896;51.032;3.712;2022-12-15T08:30:11;52;;;27.2;;
74457;SDS011;62896;51.032;3.712;2022-12-15T08:33:31;46.8;;;23.9;;
74457;SDS011;62896;51.032;3.712;2022-12-15T08:36:50;46.8;;;23.9;;
74457;SDS011;62896;51.032;3.712;2022-12-15T08:40:11;46.8;;;23.9;;
74457;SDS011;62896;51.032;3.712;2022-12-15T08:43:30;46.8;;;23.9;;
74457;SDS011;62896;51.032;3.712;2022-12-15T08:46:50;46.8;;;23.9;;
74457;SDS011;62896;51.032;3.712;2022-12-15T08:50:10;46.8;;;23.9;;
74457;SDS011;62896;51.032;3.712;2022-12-15T08:53:31;46.8;;;23.9;;
74457;SDS011;62896;51.032;3.712;2022-12-15T08:56:50;52.8;;;25.4;;
74457;SDS011;62896;51.032;3.712;2022-12-15T09:00:11;52.8;;;25.4;;
74457;SDS011;62896;51.032;3.712;2022-12-15T09:03:31;52.8;;;25.4;;
74457;SDS011;62896;51.032;3.712;2022-12-15T09:06:50;52.8;;;25.4;;
74457;SDS011;62896;51.032;3.712;2022-12-15T09:10:10;52.8;;;25.4;;
74457;SDS011;62896;51.032;3.712;2022-12-15T09:13:31;52.8;;;25.4;;
74457;SDS011;62896;51.032;3.712;2022-12-15T09:16:50;52.8;;;25.4;;
74457;SDS011;62896;51.032;3.712;2022-12-15T09:20:10;52.8;;;25.4;;
74457;SDS011;62896;51.032;3.712;2022-12-15T09:23:30;54.5;;;27.8;;
74457;SDS011;62896;51.032;3.712;2022-12-15T09:26:50;54.5;;;27.8;;
74457;SDS011;62896;51.032;3.712;2022-12-15T09:30:11;54.5;;;27.8;;
74457;SDS011;62896;51.032;3.712;2022-12-15T09:33:30;54.5;;;27.8;;
74457;SDS011;62896;51.032;3.712;2022-12-15T09:36:50;54.5;;;27.8;;
74457;SDS011;62896;51.032;3.712;2022-12-15T09:40:11;54.5;;;27.8;;
74457;SDS011;62896;51.032;3.712;2022-12-15T09:43:30;54.5;;;27.8;;
74457;SDS011;62896;51.032;3.712;2022-12-15T09:46:54;49.9;;;26.2;;
74457;SDS011;62896;51.032;3.712;2022-12-15T09:50:11;49.9;;;26.2;;
74457;SDS011;62896;51.032;3.712;2022-12-15T09:53:30;49.9;;;26.2;;
74457;SDS011;62896;51.032;3.712;2022-12-15T09:56:52;49.9;;;26.2;;
74457;SDS011;62896;51.032;3.712;2022-12-15T10:00:18;49.9;;;26.2;;
74457;SDS011;62896;51.032;3.712;2022-12-15T10:03:33;49.9;;;26.2;;
74457;SDS011;62896;51.032;3.712;2022-12-15T10:06:53;49.9;;;26.2;;
74457;SDS011;62896;51.032;3.712;2022-12-15T10:10:12;49.9;;;26.2;;
74457;SDS011;62896;51.032;3.712;2022-12-15T10:13:32;54.9;;;26.8;;
74457;SDS011;62896;51.032;3.712;2022-12-15T10:16:52;54.9;;;26.8;;
74457;SDS011;62896;51.032;3.712;2022-12-15T10:20:13;54.9;;;26.8;;
74457;SDS011;62896;51.032;3.712;2022-12-15T10:23:30;54.9;;;26.8;;
74457;SDS011;62896;51.032;3.712;2022-12-15T10:26:52;54.9;;;26.8;;
74457;SDS011;62896;51.032;3.712;2022-12-15T10:30:12;54.9;;;26.8;;
74457;SDS011;62896;51.032;3.712;2022-12-15T10:33:33;54.9;;;26.8;;
74457;SDS011;62896;51.032;3.712;2022-12-15T10:36:51;48.6;;;25;;
74457;SDS011;62896;51.032;3.712;2022-12-15T10:40:13;48.6;;;25;;
74457;SDS011;62896;51.032;3.712;2022-12-15T10:43:31;48.6;;;25;;
74457;SDS011;62896;51.032;3.712;2022-12-15T10:46:53;48.6;;;25;;
74457;SDS011;62896;51.032;3.712;2022-12-15T10:50:20;48.6;;;25;;
74457;SDS011;62896;51.032;3.712;2022-12-15T10:53:32;48.6;;;25;;
74457;SDS011;62896;51.032;3.712;2022-12-15T10:56:51;48.6;;;25;;
74457;SDS011;62896;51.032;3.712;2022-12-15T11:00:26;48.6;;;25;;
74457;SDS011;62896;51.032;3.712;2022-12-15T11:03:34;53.6;;;29;;
74457;SDS011;62896;51.032;3.712;2022-12-15T11:06:54;53.6;;;29;;
74457;SDS011;62896;51.032;3.712;2022-12-15T11:10:15;53.6;;;29;;
74457;SDS011;62896;51.032;3.712;2022-12-15T11:13:31;53.6;;;29;;
74457;SDS011;62896;51.032;3.712;2022-12-15T11:16:51;53.6;;;29;;
74457;SDS011;62896;51.032;3.712;2022-12-15T11:20:13;53.6;;;29;;
74457;SDS011;62896;51.032;3.712;2022-12-15T11:23:34;53.6;;;29;;
74457;SDS011;62896;51.032;3.712;2022-12-15T11:26:52;47.9;;;27.1;;
74457;SDS011;62896;51.032;3.712;2022-12-15T11:30:12;47.9;;;27.1;;
74457;SDS011;62896;51.032;3.712;2022-12-15T11:33:31;47.9;;;27.1;;
74457;SDS011;62896;51.032;3.712;2022-12-15T11:36:54;47.9;;;27.1;;
74457;SDS011;62896;51.032;3.712;2022-12-15T11:40:13;47.9;;;27.1;;
74457;SDS011;62896;51.032;3.712;2022-12-15T11:43:38;47.9;;;27.1;;
74457;SDS011;62896;51.032;3.712;2022-12-15T11:46:53;47.9;;;27.1;;
74457;SDS011;62896;51.032;3.712;2022-12-15T11:50:16;47.9;;;27.1;;
74457;SDS011;62896;51.032;3.712;2022-12-15T11:53:37;57.4;;;31;;
74457;SDS011;62896;51.032;3.712;2022-12-15T11:56:52;57.4;;;31;;
74457;SDS011;62896;51.032;3.712;2022-12-15T12:00:11;57.4;;;31;;
74457;SDS011;62896;51.032;3.712;2022-12-15T12:03:32;57.4;;;31;;
74457;SDS011;62896;51.032;3.712;2022-12-15T12:06:54;57.4;;;31;;
74457;SDS011;62896;51.032;3.712;2022-12-15T12:10:15;57.4;;;31;;
74457;SDS011;62896;51.032;3.712;2022-12-15T12:13:33;57.4;;;31;;
74457;SDS011;62896;51.032;3.712;2022-12-15T12:16:53;52.4;;;30.9;;
74457;SDS011;62896;51.032;3.712;2022-12-15T12:20:12;52.4;;;30.9;;
74457;SDS011;62896;51.032;3.712;2022-12-15T12:23:33;52.4;;;30.9;;
74457;SDS011;62896;51.032;3.712;2022-12-15T12:26:52;52.4;;;30.9;;
74457;SDS011;62896;51.032;3.712;2022-12-15T12:30:12;52.4;;;30.9;;
74457;SDS011;62896;51.032;3.712;2022-12-15T12:33:32;52.4;;;30.9;;
74457;SDS011;62896;51.032;3.712;2022-12-15T12:36:51;52.4;;;30.9;;
74457;SDS011;62896;51.032;3.712;2022-12-15T12:40:15;52.4;;;30.9;;
74457;SDS011;62896;51.032;3.712;2022-12-15T12:43:31;53.4;;;31.3;;
74457;SDS011;62896;51.032;3.712;2022-12-15T12:46:51;53.4;;;31.3;;
74457;SDS011;62896;51.032;3.712;2022-12-15T12:50:13;53.4;;;31.3;;
74457;SDS011;62896;51.032;3.712;2022-12-15T12:53:31;53.4;;;31.3;;
74457;SDS011;62896;51.032;3.712;2022-12-15T12:56:51;53.4;;;31.3;;
74457;SDS011;62896;51.032;3.712;2022-12-15T13:00:14;53.4;;;31.3;;
74457;SDS011;62896;51.032;3.712;2022-12-15T13:03:31;53.4;;;31.3;;
74457;SDS011;62896;51.032;3.712;2022-12-15T13:06:55;46.7;;;27.8;;
74457;SDS011;62896;51.032;3.712;2022-12-15T13:10:12;46.7;;;27.8;;
74457;SDS011;62896;51.032;3.712;2022-12-15T13:13:35;46.7;;;27.8;;
74457;SDS011;62896;51.032;3.712;2022-12-15T13:16:53;46.7;;;27.8;;
74457;SDS011;62896;51.032;3.712;2022-12-15T13:20:17;46.7;;;27.8;;
74457;SDS011;62896;51.032;3.712;2022-12-15T13:23:46;46.7;;;27.8;;
74457;SDS011;62896;51.032;3.712;2022-12-15T13:26:51;46.7;;;27.8;;
74457;SDS011;62896;51.032;3.712;2022-12-15T13:30:13;46.7;;;27.8;;
74457;SDS011;62896;51.032;3.712;2022-12-15T13:33:31;38.4;;;25.2;;
74457;SDS011;62896;51.032;3.712;2022-12-15T13:36:53;38.4;;;25.2;;
74457;SDS011;62896;51.032;3.712;2022-12-15T13:40:23;38.4;;;25.2;;
74457;SDS011;62896;51.032;3.712;2022-12-15T13:43:34;38.4;;;25.2;;
74457;SDS011;62896;51.032;3.712;2022-12-15T13:46:51;38.4;;;25.2;;
74457;SDS011;62896;51.032;3.712;2022-12-15T13:50:12;38.4;;;25.2;;
74457;SDS011;62896;51.032;3.712;2022-12-15T13:53:35;38.4;;;25.2;;
74457;SDS011;62896;51.032;3.712;2022-12-15T13:56:52;44.7;;;27.9;;
74457;SDS011;62896;51.032;3.712;2022-12-15T14:00:12;44.7;;;27.9;;
74457;SDS011;62896;51.032;3.712;2022-12-15T14:03:31;44.7;;;27.9;;
74457;SDS011;62896;51.032;3.712;2022-12-15T14:06:51;44.7;;;27.9;;
74457;SDS011;62896;51.032;3.712;2022-12-15T14:10:15;44.7;;;27.9;;
74457;SDS011;62896;51.032;3.712;2022-12-15T14:13:32;44.7;;;27.9;;
74457;SDS011;62896;51.032;3.712;2022-12-15T14:16:53;44.7;;;27.9;;
74457;SDS011;62896;51.032;3.712;2022-12-15T14:20:12;44.7;;;27.9;;
74457;SDS011;62896;51.032;3.712;2022-12-15T14:23:37;46.6;;;28.6;;
74457;SDS011;62896;51.032;3.712;2022-12-15T14:26:51;46.6;;;28.6;;
74457;SDS011;62896;51.032;3.712;2022-12-15T14:30:14;46.6;;;28.6;;
74457;SDS011;62896;51.032;3.712;2022-12-15T14:33:32;46.6;;;28.6;;
74457;SDS011;62896;51.032;3.712;2022-12-15T14:36:51;46.6;;;28.6;;
74457;SDS011;62896;51.032;3.712;2022-12-15T14:40:11;46.6;;;28.6;;
74457;SDS011;62896;51.032;3.712;2022-12-15T14:43:31;46.6;;;28.6;;
74457;SDS011;62896;51.032;3.712;2022-12-15T14:46:51;46.5;;;29.1;;
74457;SDS011;62896;51.032;3.712;2022-12-15T14:50:13;46.5;;;29.1;;
74457;SDS011;62896;51.032;3.712;2022-12-15T14:53:31;46.5;;;29.1;;
74457;SDS011;62896;51.032;3.712;2022-12-15T14:56:54;46.5;;;29.1;;
74457;SDS011;62896;51.032;3.712;2022-12-15T15:00:27;46.5;;;29.1;;
74457;SDS011;62896;51.032;3.712;2022-12-15T15:03:34;46.5;;;29.1;;
74457;SDS011;62896;51.032;3.712;2022-12-15T15:06:52;46.5;;;29.1;;
74457;SDS011;62896;51.032;3.712;2022-12-15T15:10:19;46.5;;;29.1;;
74457;SDS011;62896;51.032;3.712;2022-12-15T15:13:33;47.3;;;29.1;;
74457;SDS011;62896;51.032;3.712;2022-12-15T15:16:59;47.3;;;29.1;;
74457;SDS011;62896;51.032;3.712;2022-12-15T15:20:15;47.3;;;29.1;;
74457;SDS011;62896;51.032;3.712;2022-12-15T15:23:31;47.3;;;29.1;;
74457;SDS011;62896;51.032;3.712;2022-12-15T15:26:51;47.3;;;29.1;;
74457;SDS011;62896;51.032;3.712;2022-12-15T15:30:16;47.3;;;29.1;;
74457;SDS011;62896;51.032;3.712;2022-12-15T15:33:31;47.3;;;29.1;;
74457;SDS011;62896;51.032;3.712;2022-12-15T15:36:51;51.5;;;29.8;;
74457;SDS011;62896;51.032;3.712;2022-12-15T15:40:11;51.5;;;29.8;;
74457;SDS011;62896;51.032;3.712;2022-12-15T15:43:31;51.5;;;29.8;;
74457;SDS011;62896;51.032;3.712;2022-12-15T15:46:51;51.5;;;29.8;;
74457;SDS011;62896;51.032;3.712;2022-12-15T15:50:12;51.5;;;29.8;;
74457;SDS011;62896;51.032;3.712;2022-12-15T15:53:31;51.5;;;29.8;;
74457;SDS011;62896;51.032;3.712;2022-12-15T15:56:51;51.5;;;29.8;;
74457;SDS011;62896;51.032;3.712;2022-12-15T16:00:13;51.5;;;29.8;;
74457;SDS011;62896;51.032;3.712;2022-12-15T16:03:31;54.3;;;31.3;;
74457;SDS011;62896;51.032;3.712;2022-12-15T16:06:51;54.3;;;31.3;;
74457;SDS011;62896;51.032;3.712;2022-12-15T16:10:12;54.3;;;31.3;;
74457;SDS011;62896;51.032;3.712;2022-12-15T16:13:31;54.3;;;31.3;;
74457;SDS011;62896;51.032;3.712;2022-12-15T16:16:51;54.3;;;31.3;;
74457;SDS011;62896;51.032;3.712;2022-12-15T16:20:11;54.3;;;31.3;;
74457;SDS011;62896;51.032;3.712;2022-12-15T16:23:31;54.3;;;31.3;;
74457;SDS011;62896;51.032;3.712;2022-12-15T16:26:51;59.9;;;33.7;;
74457;SDS011;62896;51.032;3.712;2022-12-15T16:30:15;59.9;;;33.7;;
74457;SDS011;62896;51.032;3.712;2022-12-15T16:33:31;59.9;;;33.7;;
74457;SDS011;62896;51.032;3.712;2022-12-15T16:36:51;59.9;;;33.7;;
74457;SDS011;62896;51.032;3.712;2022-12-15T16:40:12;59.9;;;33.7;;
74457;SDS011;62896;51.032;3.712;2022-12-15T16:43:31;59.9;;;33.7;;
74457;SDS011;62896;51.032;3.712;2022-12-15T16:46:51;59.9;;;33.7;;
74457;SDS011;62896;51.032;3.712;2022-12-15T16:50:11;59.9;;;33.7;;
74457;SDS011;62896;51.032;3.712;2022-12-15T16:53:31;69.1;;;36.9;;
74457;SDS011;62896;51.032;3.712;2022-12-15T16:56:51;69.1;;;36.9;;
74457;SDS011;62896;51.032;3.712;2022-12-15T17:00:13;69.1;;;36.9;;
74457;SDS011;62896;51.032;3.712;2022-12-15T17:03:31;69.1;;;36.9;;
74457;SDS011;62896;51.032;3.712;2022-12-15T17:06:51;69.1;;;36.9;;
74457;SDS011;62896;51.032;3.712;2022-12-15T17:10:15;69.1;;;36.9;;
74457;SDS011;62896;51.032;3.712;2022-12-15T17:13:32;69.1;;;36.9;;
74457;SDS011;62896;51.032;3.712;2022-12-15T17:16:51;70.7;;;40.3;;
74457;SDS011;62896;51.032;3.712;2022-12-15T17:20:13;70.7;;;40.3;;
74457;SDS011;62896;51.032;3.712;2022-12-15T17:23:31;70.7;;;40.3;;
74457;SDS011;62896;51.032;3.712;2022-12-15T17:26:51;70.7;;;40.3;;
74457;SDS011;62896;51.032;3.712;2022-12-15T17:30:12;70.7;;;40.3;;
74457;SDS011;62896;51.032;3.712;2022-12-15T17:33:32;70.7;;;40.3;;
74457;SDS011;62896;51.032;3.712;2022-12-15T17:36:51;70.7;;;40.3;;
74457;SDS011;62896;51.032;3.712;2022-12-15T17:40:13;70.7;;;40.3;;
74457;SDS011;62896;51.032;3.712;2022-12-15T17:43:31;79.5;;;41.5;;
74457;SDS011;62896;51.032;3.712;2022-12-15T17:46:51;79.5;;;41.5;;
74457;SDS011;62896;51.032;3.712;2022-12-15T17:50:11;79.5;;;41.5;;
74457;SDS011;62896;51.032;3.712;2022-12-15T17:53:31;79.5;;;41.5;;
74457;SDS011;62896;51.032;3.712;2022-12-15T17:56:51;79.5;;;41.5;;
74457;SDS011;62896;51.032;3.712;2022-12-15T18:00:16;79.5;;;41.5;;
74457;SDS011;62896;51.032;3.712;2022-12-15T18:03:31;79.5;;;41.5;;
74457;SDS011;62896;51.032;3.712;2022-12-15T18:06:51;83.1;;;44.3;;
74457;SDS011;62896;51.032;3.712;2022-12-15T18:10:20;83.1;;;44.3;;
74457;SDS011;62896;51.032;3.712;2022-12-15T18:13:31;83.1;;;44.3;;
74457;SDS011;62896;51.032;3.712;2022-12-15T18:16:51;83.1;;;44.3;;
74457;SDS011;62896;51.032;3.712;2022-12-15T18:20:11;83.1;;;44.3;;
74457;SDS011;62896;51.032;3.712;2022-12-15T18:23:31;83.1;;;44.3;;
74457;SDS011;62896;51.032;3.712;2022-12-15T18:26:51;83.1;;;44.3;;
74457;SDS011;62896;51.032;3.712;2022-12-15T18:30:13;83.1;;;44.3;;
74457;SDS011;62896;51.032;3.712;2022-12-15T18:33:31;90.7;;;48.4;;
74457;SDS011;62896;51.032;3.712;2022-12-15T18:36:51;90.7;;;48.4;;
74457;SDS011;62896;51.032;3.712;2022-12-15T18:40:12;90.7;;;48.4;;
74457;SDS011;62896;51.032;3.712;2022-12-15T18:43:31;90.7;;;48.4;;
74457;SDS011;62896;51.032;3.712;2022-12-15T18:46:51;90.7;;;48.4;;
74457;SDS011;62896;51.032;3.712;2022-12-15T18:50:13;90.7;;;48.4;;
74457;SDS011;62896;51.032;3.712;2022-12-15T18:53:32;90.7;;;48.4;;
74457;SDS011;62896;51.032;3.712;2022-12-15T18:56:51;82.8;;;43.4;;
74457;SDS011;62896;51.032;3.712;2022-12-15T19:00:19;82.8;;;43.4;;
74457;SDS011;62896;51.032;3.712;2022-12-15T19:03:31;82.8;;;43.4;;
74457;SDS011;62896;51.032;3.712;2022-12-15T19:06:51;82.8;;;43.4;;
74457;SDS011;62896;51.032;3.712;2022-12-15T19:10:11;82.8;;;43.4;;
74457;SDS011;62896;51.032;3.712;2022-12-15T19:13:31;82.8;;;43.4;;
74457;SDS011;62896;51.032;3.712;2022-12-15T19:16:51;82.8;;;43.4;;
74457;SDS011;62896;51.032;3.712;2022-12-15T19:20:14;82.8;;;43.4;;
74457;SDS011;62896;51.032;3.712;2022-12-15T19:23:31;87.6;;;45.1;;
74457;SDS011;62896;51.032;3.712;2022-12-15T19:26:51;87.6;;;45.1;;
74457;SDS011;62896;51.032;3.712;2022-12-15T19:30:13;87.6;;;45.1;;
74457;SDS011;62896;51.032;3.712;2022-12-15T19:33:31;87.6;;;45.1;;
74457;SDS011;62896;51.032;3.712;2022-12-15T19:36:51;87.6;;;45.1;;
74457;SDS011;62896;51.032;3.712;2022-12-15T19:40:15;87.6;;;45.1;;
74457;SDS011;62896;51.032;3.712;2022-12-15T19:43:31;87.6;;;45.1;;
74457;SDS011;62896;51.032;3.712;2022-12-15T19:46:51;84.5;;;44.2;;
74457;SDS011;62896;51.032;3.712;2022-12-15T19:50:13;84.5;;;44.2;;
74457;SDS011;62896;51.032;3.712;2022-12-15T19:53:31;84.5;;;44.2;;
74457;SDS011;62896;51.032;3.712;2022-12-15T19:56:51;84.5;;;44.2;;
74457;SDS011;62896;51.032;3.712;2022-12-15T20:00:13;84.5;;;44.2;;
74457;SDS011;62896;51.032;3.712;2022-12-15T20:03:31;84.5;;;44.2;;
74457;SDS011;62896;51.032;3.712;2022-12-15T20:06:51;84.5;;;44.2;;
74457;SDS011;62896;51.032;3.712;2022-12-15T20:10:14;84.5;;;44.2;;